createdAt,value
2018-08-20T00:03:30.341Z,21.76
2018-08-20T00:08:27.306Z,21.76
2018-08-20T00:13:22.803Z,21.72
2018-08-20T00:18:18.907Z,21.82
2018-08-20T00:23:14.740Z,21.76
2018-08-20T00:28:11.826Z,21.55
2018-08-20T00:33:07.337Z,21.54
2018-08-20T00:38:03.084Z,21.60
2018-08-20T00:42:58.839Z,21.62
2018-08-20T00:47:55.281Z,21.58
2018-08-20T00:52:51.112Z,21.52
2018-08-20T00:57:48.277Z,21.52
2018-08-20T01:02:44.858Z,21.39
2018-08-20T01:07:40.347Z,21.37
2018-08-20T01:12:36.149Z,21.33
2018-08-20T01:17:32.541Z,21.35
2018-08-20T01:22:29.329Z,21.29
2018-08-20T01:27:24.782Z,21.25
2018-08-20T01:32:20.738Z,21.21
2018-08-20T01:37:17.185Z,21.20
2018-08-20T01:42:13.132Z,21.24
2018-08-20T01:47:10.089Z,21.03
2018-08-20T01:52:05.654Z,21.00
2018-08-20T01:57:01.967Z,20.99
2018-08-20T02:01:57.730Z,21.05
2018-08-20T02:06:53.718Z,20.97
2018-08-20T02:11:49.542Z,20.99
2018-08-20T02:16:45.428Z,20.99
2018-08-20T02:21:41.670Z,20.99
2018-08-20T02:26:37.499Z,20.90
2018-08-20T02:31:33.516Z,20.95
2018-08-20T02:36:29.356Z,20.81
2018-08-20T02:41:25.146Z,20.80
2018-08-20T02:46:21.060Z,20.85
2018-08-20T02:51:16.867Z,20.74
2018-08-20T02:56:12.653Z,20.87
2018-08-20T03:01:09.550Z,20.82
2018-08-20T03:06:05.339Z,20.82
2018-08-20T03:11:01.531Z,20.82
2018-08-20T03:15:57.339Z,20.78
2018-08-20T03:20:54.016Z,20.82
2018-08-20T03:25:50.432Z,20.69
2018-08-20T03:30:47.231Z,20.66
2018-08-20T03:35:42.707Z,20.74
2018-08-20T03:40:38.392Z,20.55
2018-08-20T03:45:34.380Z,20.58
2018-08-20T03:50:30.121Z,20.66
2018-08-20T03:55:26.446Z,20.66
2018-08-20T04:00:22.235Z,20.60
2018-08-20T04:05:18.340Z,20.58
2018-08-20T04:10:14.066Z,20.65
2018-08-20T04:15:10.035Z,20.55
2018-08-20T04:20:06.927Z,20.50
2018-08-20T04:25:02.496Z,20.52
2018-08-20T04:29:58.854Z,20.50
2018-08-20T04:34:55.644Z,20.51
2018-08-20T04:39:51.198Z,20.48
2018-08-20T04:44:48.197Z,20.50
2018-08-20T04:49:43.953Z,20.52
2018-08-20T04:54:40.057Z,20.50
2018-08-20T04:59:35.982Z,20.50
2018-08-20T05:04:31.968Z,20.43
2018-08-20T05:09:27.930Z,20.48
2018-08-20T05:14:24.633Z,20.50
2018-08-20T05:19:21.525Z,20.44
2018-08-20T05:24:17.848Z,20.50
2018-08-20T05:29:13.679Z,20.52
2018-08-20T05:34:09.956Z,20.52
2018-08-20T05:39:05.728Z,20.52
2018-08-20T05:44:01.600Z,20.51
2018-08-20T05:48:58.391Z,20.50
2018-08-20T05:53:54.010Z,20.51
2018-08-20T05:58:50.049Z,20.59
2018-08-20T06:03:45.983Z,20.52
2018-08-20T06:08:42.013Z,20.52
2018-08-20T06:13:38.052Z,20.55
2018-08-20T06:18:35.053Z,20.51
2018-08-20T06:23:31.667Z,20.63
2018-08-20T06:28:27.509Z,20.65
2018-08-20T06:33:23.569Z,20.82
2018-08-20T06:38:19.508Z,20.85
2018-08-20T06:43:15.822Z,20.85
2018-08-20T06:48:11.818Z,20.88
2018-08-20T06:53:07.685Z,20.82
2018-08-20T06:58:03.464Z,20.92
2018-08-20T07:02:59.197Z,20.87
2018-08-20T07:07:56.096Z,20.93
2018-08-20T07:12:52.840Z,21.03
2018-08-20T07:17:48.504Z,21.06
2018-08-20T07:22:44.606Z,21.21
2018-08-20T07:27:40.376Z,21.18
2018-08-20T07:32:36.614Z,21.30
2018-08-20T07:37:33.762Z,21.25
2018-08-20T07:42:30.300Z,21.43
2018-08-20T07:47:26.628Z,21.39
2018-08-20T07:52:22.933Z,21.48
2018-08-20T07:57:18.969Z,21.54
2018-08-20T08:02:14.806Z,21.58
2018-08-20T08:07:10.951Z,21.66
2018-08-20T08:12:08.291Z,21.61
2018-08-20T08:17:04.116Z,21.77
2018-08-20T08:22:00.123Z,21.79
2018-08-20T08:26:55.953Z,21.79
2018-08-20T08:31:51.778Z,21.80
2018-08-20T08:36:47.681Z,21.77
2018-08-20T08:41:44.833Z,21.73
2018-08-20T08:46:40.629Z,21.85
2018-08-20T08:51:37.684Z,22.08
2018-08-20T08:56:34.542Z,22.15
2018-08-20T09:01:31.497Z,22.32
2018-08-20T09:06:27.991Z,22.68
2018-08-20T09:11:25.342Z,22.83
2018-08-20T09:16:21.580Z,22.70
2018-08-20T09:21:17.357Z,22.73
2018-08-20T09:26:14.375Z,22.72
2018-08-20T09:31:10.445Z,22.87
2018-08-20T09:36:06.490Z,23.08
2018-08-20T09:41:02.845Z,23.28
2018-08-20T09:45:59.554Z,23.40
2018-08-20T09:50:55.488Z,23.36
2018-08-20T09:55:52.462Z,23.32
2018-08-20T10:00:48.169Z,23.32
2018-08-20T10:05:43.535Z,22.85
2018-08-20T10:10:38.873Z,22.62
2018-08-20T10:15:34.578Z,22.62
2018-08-20T10:20:30.123Z,22.47
2018-08-20T10:25:26.022Z,22.33
2018-08-20T10:30:21.616Z,22.20
2018-08-20T10:35:17.360Z,22.17
2018-08-20T10:40:13.082Z,22.02
2018-08-20T10:45:08.942Z,21.89
2018-08-20T10:50:04.999Z,21.75
2018-08-20T10:55:00.886Z,21.61
2018-08-20T10:59:57.613Z,21.55
2018-08-20T11:04:53.520Z,21.66
2018-08-20T11:09:49.431Z,21.72
2018-08-20T11:14:46.618Z,21.77
2018-08-20T11:19:42.399Z,21.82
2018-08-20T11:24:39.820Z,22.02
2018-08-20T11:29:36.968Z,22.14
2018-08-20T11:34:32.764Z,22.44
2018-08-20T11:39:30.304Z,22.50
2018-08-20T11:44:26.527Z,22.53
2018-08-20T11:49:22.392Z,22.70
2018-08-20T11:54:18.371Z,22.59
2018-08-20T11:59:14.640Z,22.66
2018-08-20T12:04:10.933Z,22.69
2018-08-20T12:09:07.166Z,22.90
2018-08-20T12:14:04.505Z,23.20
2018-08-20T12:19:00.773Z,23.34
2018-08-20T12:23:57.554Z,23.63
2018-08-20T12:28:54.091Z,23.96
2018-08-20T12:33:51.219Z,24.26
2018-08-20T12:38:47.253Z,24.28
2018-08-20T12:43:43.345Z,24.39
2018-08-20T12:48:39.569Z,24.61
2018-08-20T12:53:36.000Z,24.80
2018-08-20T12:58:31.841Z,24.68
2018-08-20T13:03:28.015Z,24.98
2018-08-20T13:08:24.044Z,25.18
2018-08-20T13:13:20.173Z,24.96
2018-08-20T13:18:16.209Z,25.04
2018-08-20T13:23:12.233Z,25.36
2018-08-20T13:28:08.427Z,25.55
2018-08-20T13:33:04.498Z,25.59
2018-08-20T13:38:00.175Z,25.43
2018-08-20T13:42:57.125Z,25.35
2018-08-20T13:47:53.601Z,25.08
2018-08-20T13:52:49.285Z,25.22
2018-08-20T13:57:46.273Z,25.04
2018-08-20T14:02:41.702Z,24.96
2018-08-20T14:07:37.447Z,24.93
2018-08-20T14:12:34.257Z,24.77
2018-08-20T14:17:30.675Z,24.63
2018-08-20T14:22:26.293Z,24.57
2018-08-20T14:27:22.172Z,24.54
2018-08-20T14:32:19.245Z,24.77
2018-08-20T14:37:15.396Z,25.06
2018-08-20T14:42:11.351Z,25.04
2018-08-20T14:47:07.254Z,24.96
2018-08-20T14:52:02.988Z,24.85
2018-08-20T14:57:00.025Z,24.84
2018-08-20T15:01:55.827Z,24.98
2018-08-20T15:06:51.948Z,25.03
2018-08-20T15:11:49.060Z,25.03
2018-08-20T15:16:44.437Z,24.88
2018-08-20T15:21:40.371Z,24.81
2018-08-20T15:26:35.997Z,24.86
2018-08-20T15:31:32.887Z,24.76
2018-08-20T15:36:28.607Z,24.84
2018-08-20T15:41:24.659Z,24.81
2018-08-20T15:46:21.003Z,24.69
2018-08-20T15:51:16.804Z,24.55
2018-08-20T15:56:13.386Z,24.29
2018-08-20T16:01:09.365Z,24.11
2018-08-20T16:06:06.191Z,24.06
2018-08-20T16:11:01.580Z,23.93
2018-08-20T16:15:58.445Z,24.08
2018-08-20T16:20:54.285Z,23.92
2018-08-20T16:25:50.042Z,23.76
2018-08-20T16:30:47.341Z,23.69
2018-08-20T16:35:43.014Z,23.55
2018-08-20T16:40:39.908Z,23.56
2018-08-20T16:45:35.512Z,23.66
2018-08-20T16:50:32.400Z,23.56
2018-08-20T16:55:28.960Z,23.51
2018-08-20T17:00:25.058Z,23.51
2018-08-20T17:05:20.871Z,23.34
2018-08-20T17:10:18.051Z,23.28
2018-08-20T17:15:14.602Z,23.25
2018-08-20T17:20:10.302Z,23.20
2018-08-20T17:25:06.520Z,23.06
2018-08-20T17:30:03.976Z,23.05
2018-08-20T17:34:59.715Z,22.93
2018-08-20T17:39:56.983Z,22.87
2018-08-20T17:44:52.304Z,22.84
2018-08-20T17:49:48.587Z,22.84
2018-08-20T17:54:45.760Z,22.76
2018-08-20T17:59:41.515Z,22.63
2018-08-20T18:04:37.138Z,22.68
2018-08-20T18:09:32.937Z,22.55
2018-08-20T18:14:28.800Z,22.54
2018-08-20T18:19:26.086Z,22.47
2018-08-20T18:24:22.560Z,22.48
2018-08-20T18:29:18.273Z,22.39
2018-08-20T18:34:14.267Z,22.18
2018-08-20T18:39:10.121Z,22.26
2018-08-20T18:44:06.207Z,22.11
2018-08-20T18:49:01.848Z,22.06
2018-08-20T18:53:57.771Z,22.08
2018-08-20T18:58:53.776Z,22.11
2018-08-20T19:03:49.850Z,22.10
2018-08-20T19:08:45.789Z,22.17
2018-08-20T19:13:41.674Z,22.10
2018-08-20T19:18:37.558Z,21.96
2018-08-20T19:23:33.565Z,21.95
2018-08-20T19:28:29.397Z,22.08
2018-08-20T19:33:25.392Z,21.95
2018-08-20T19:38:21.224Z,22.02
2018-08-20T19:43:18.227Z,22.00
2018-08-20T19:48:13.691Z,21.87
2018-08-20T19:53:09.406Z,21.91
2018-08-20T19:58:05.588Z,21.83
2018-08-20T20:03:01.626Z,21.77
2018-08-20T20:07:58.529Z,21.77
2018-08-20T20:12:54.195Z,21.76
2018-08-20T20:17:49.948Z,21.73
2018-08-20T20:22:46.134Z,21.80
2018-08-20T20:27:43.420Z,21.80
2018-08-20T20:32:39.495Z,21.77
2018-08-20T20:37:35.484Z,21.76
2018-08-20T20:42:31.500Z,21.76
2018-08-20T20:47:27.569Z,21.67
2018-08-20T20:52:23.523Z,21.66
2018-08-20T20:57:19.546Z,21.69
2018-08-20T21:02:15.212Z,21.60
2018-08-20T21:07:10.996Z,21.60
2018-08-20T21:12:06.985Z,21.58
2018-08-20T21:17:03.984Z,21.43
2018-08-20T21:21:59.444Z,21.54
2018-08-20T21:26:56.499Z,21.51
2018-08-20T21:31:52.019Z,21.48
2018-08-20T21:36:48.139Z,21.39
2018-08-20T21:41:43.976Z,21.43
2018-08-20T21:46:39.833Z,21.25
2018-08-20T21:51:36.082Z,21.32
2018-08-20T21:56:31.960Z,21.32
2018-08-20T22:01:27.929Z,21.43
2018-08-20T22:06:23.768Z,21.40
2018-08-20T22:11:19.860Z,21.33
2018-08-20T22:16:17.113Z,21.32
2018-08-20T22:21:13.780Z,21.27
2018-08-20T22:26:09.278Z,21.29
2018-08-20T22:31:05.805Z,21.30
2018-08-20T22:36:01.509Z,21.11
2018-08-20T22:40:58.778Z,21.11
2018-08-20T22:45:54.295Z,20.99
2018-08-20T22:50:50.172Z,21.00
2018-08-20T22:55:47.096Z,21.02
2018-08-20T23:00:42.758Z,20.95
2018-08-20T23:05:38.424Z,20.82
2018-08-20T23:10:34.378Z,20.81
2018-08-20T23:15:30.283Z,20.82
2018-08-20T23:20:25.927Z,20.80
2018-08-20T23:25:21.837Z,20.72
2018-08-20T23:30:18.064Z,20.74
2018-08-20T23:35:15.199Z,20.67
2018-08-20T23:40:10.638Z,20.69
2018-08-20T23:45:06.400Z,20.67
2018-08-20T23:50:02.181Z,20.66
2018-08-20T23:54:59.496Z,20.62
2018-08-20T23:59:55.039Z,20.74
